sensor_id;sensor_type;location;lat;lon;timestamp;pressure;altitude;pressure_sealevel;temperature;humidity
27712;BME280;2377;51.734;8.950;2023-06-26T00:01:46;97824.00;;;23.16;62.70
27712;BME280;2377;51.734;8.950;2023-06-26T00:04:16;97825.38;;;23.14;62.65
27712;BME280;2377;51.734;8.950;2023-06-26T00:06:44;97822.00;;;23.13;62.44
27712;BME280;2377;51.734;8.950;2023-06-26T00:09:13;97828.28;;;23.12;62.91
27712;BME280;2377;51.734;8.950;2023-06-26T00:11:40;97818.13;;;23.11;62.72
27712;BME280;2377;51.734;8.950;2023-06-26T00:14:08;97819.78;;;23.07;62.74
27712;BME280;2377;51.734;8.950;2023-06-26T00:16:36;97817.00;;;23.03;62.18
27712;BME280;2377;51.734;8.950;2023-06-26T00:19:03;97818.66;;;22.99;62.42
27712;BME280;2377;51.734;8.950;2023-06-26T00:21:30;97808.78;;;22.96;62.60
27712;BME280;2377;51.734;8.950;2023-06-26T00:23:57;97809.66;;;22.91;63.23
27712;BME280;2377;51.734;8.950;2023-06-26T00:26:24;97806.09;;;22.87;63.58
27712;BME280;2377;51.734;8.950;2023-06-26T00:28:51;97809.28;;;22.84;63.44
27712;BME280;2377;51.734;8.950;2023-06-26T00:31:18;97813.53;;;22.80;63.58
27712;BME280;2377;51.734;8.950;2023-06-26T00:33:47;97812.09;;;22.74;64.03
27712;BME280;2377;51.734;8.950;2023-06-26T00:36:14;97812.69;;;22.71;64.11
27712;BME280;2377;51.734;8.950;2023-06-26T00:38:41;97809.09;;;22.67;63.96
27712;BME280;2377;51.734;8.950;2023-06-26T00:41:08;97807.56;;;22.66;63.83
27712;BME280;2377;51.734;8.950;2023-06-26T00:43:38;97807.09;;;22.64;63.83
27712;BME280;2377;51.734;8.950;2023-06-26T00:46:10;97809.41;;;22.65;63.83
27712;BME280;2377;51.734;8.950;2023-06-26T00:48:39;97801.09;;;22.63;64.11
27712;BME280;2377;51.734;8.950;2023-06-26T00:51:09;97802.47;;;22.61;64.97
27712;BME280;2377;51.734;8.950;2023-06-26T00:53:37;97801.22;;;22.58;65.12
27712;BME280;2377;51.734;8.950;2023-06-26T00:56:05;97792.72;;;22.52;64.83
27712;BME280;2377;51.734;8.950;2023-06-26T00:58:33;97785.47;;;22.49;65.26
27712;BME280;2377;51.734;8.950;2023-06-26T01:01:00;97784.22;;;22.47;65.08
27712;BME280;2377;51.734;8.950;2023-06-26T01:03:29;97785.09;;;22.42;64.96
27712;BME280;2377;51.734;8.950;2023-06-26T01:05:58;97782.00;;;22.40;65.05
27712;BME280;2377;51.734;8.950;2023-06-26T01:08:28;97781.53;;;22.38;64.56
27712;BME280;2377;51.734;8.950;2023-06-26T01:10:56;97780.28;;;22.35;64.79
27712;BME280;2377;51.734;8.950;2023-06-26T01:13:23;97772.72;;;22.34;64.94
27712;BME280;2377;51.734;8.950;2023-06-26T01:15:52;97760.31;;;22.31;65.06
27712;BME280;2377;51.734;8.950;2023-06-26T01:18:20;97767.94;;;22.27;65.19
27712;BME280;2377;51.734;8.950;2023-06-26T01:20:48;97761.94;;;22.27;64.92
27712;BME280;2377;51.734;8.950;2023-06-26T01:23:22;97758.56;;;22.26;64.70
27712;BME280;2377;51.734;8.950;2023-06-26T01:26:12;97752.09;;;22.24;64.95
27712;BME280;2377;51.734;8.950;2023-06-26T01:28:42;97755.38;;;22.15;65.23
27712;BME280;2377;51.734;8.950;2023-06-26T01:31:11;97752.06;;;22.10;65.94
27712;BME280;2377;51.734;8.950;2023-06-26T01:33:38;97753.41;;;22.07;66.34
27712;BME280;2377;51.734;8.950;2023-06-26T01:36:07;97752.66;;;22.07;66.37
27712;BME280;2377;51.734;8.950;2023-06-26T01:38:34;97750.81;;;22.07;66.03
27712;BME280;2377;51.734;8.950;2023-06-26T01:41:05;97753.41;;;22.07;66.13
27712;BME280;2377;51.734;8.950;2023-06-26T01:43:44;97748.50;;;22.06;66.57
27712;BME280;2377;51.734;8.950;2023-06-26T01:46:23;97748.03;;;22.04;66.00
27712;BME280;2377;51.734;8.950;2023-06-26T01:49:00;97744.16;;;22.01;65.69
27712;BME280;2377;51.734;8.950;2023-06-26T01:51:36;97738.00;;;21.97;66.00
27712;BME280;2377;51.734;8.950;2023-06-26T01:54:12;97732.09;;;21.91;66.30
27712;BME280;2377;51.734;8.950;2023-06-26T01:56:45;97728.31;;;21.84;66.20
27712;BME280;2377;51.734;8.950;2023-06-26T01:59:13;97726.00;;;21.82;66.19
27712;BME280;2377;51.734;8.950;2023-06-26T02:01:41;97726.00;;;21.82;66.16
27712;BME280;2377;51.734;8.950;2023-06-26T02:04:08;97726.31;;;21.81;66.14
27712;BME280;2377;51.734;8.950;2023-06-26T02:06:35;97731.78;;;21.79;65.78
27712;BME280;2377;51.734;8.950;2023-06-26T02:09:02;97721.19;;;21.76;65.80
27712;BME280;2377;51.734;8.950;2023-06-26T02:11:29;97724.84;;;21.74;65.99
27712;BME280;2377;51.734;8.950;2023-06-26T02:13:58;97716.56;;;21.72;65.82
27712;BME280;2377;51.734;8.950;2023-06-26T02:16:25;97715.03;;;21.71;66.36
27712;BME280;2377;51.734;8.950;2023-06-26T02:18:52;97713.47;;;21.70;66.16
27712;BME280;2377;51.734;8.950;2023-06-26T02:21:19;97715.59;;;21.68;66.43
27712;BME280;2377;51.734;8.950;2023-06-26T02:23:46;97708.66;;;21.64;66.27
27712;BME280;2377;51.734;8.950;2023-06-26T02:26:13;97714.13;;;21.62;66.33
27712;BME280;2377;51.734;8.950;2023-06-26T02:28:40;97706.91;;;21.59;66.70
27712;BME280;2377;51.734;8.950;2023-06-26T02:31:09;97704.38;;;21.54;66.92
27712;BME280;2377;51.734;8.950;2023-06-26T02:33:36;97710.16;;;21.51;67.22
27712;BME280;2377;51.734;8.950;2023-06-26T02:36:03;97707.63;;;21.46;67.51
27712;BME280;2377;51.734;8.950;2023-06-26T02:38:30;97706.88;;;21.45;68.14
27712;BME280;2377;51.734;8.950;2023-06-26T02:40:58;97709.00;;;21.43;67.97
27712;BME280;2377;51.734;8.950;2023-06-26T02:43:25;97699.16;;;21.40;67.72
27712;BME280;2377;51.734;8.950;2023-06-26T02:45:52;97698.38;;;21.40;68.18
27712;BME280;2377;51.734;8.950;2023-06-26T02:48:20;97692.19;;;21.36;68.07
27712;BME280;2377;51.734;8.950;2023-06-26T02:50:47;97692.75;;;21.32;67.94
27712;BME280;2377;51.734;8.950;2023-06-26T02:53:14;97693.81;;;21.31;68.48
27712;BME280;2377;51.734;8.950;2023-06-26T02:55:41;97695.41;;;21.27;68.45
27712;BME280;2377;51.734;8.950;2023-06-26T02:58:08;97688.69;;;21.26;68.58
27712;BME280;2377;51.734;8.950;2023-06-26T03:00:35;97691.06;;;21.23;68.69
27712;BME280;2377;51.734;8.950;2023-06-26T03:03:07;97687.97;;;21.21;68.56
27712;BME280;2377;51.734;8.950;2023-06-26T03:05:35;97689.06;;;21.20;68.38
27712;BME280;2377;51.734;8.950;2023-06-26T03:08:03;97680.00;;;21.17;68.27
27712;BME280;2377;51.734;8.950;2023-06-26T03:10:30;97681.59;;;21.13;68.62
27712;BME280;2377;51.734;8.950;2023-06-26T03:12:57;97688.41;;;21.09;69.10
27712;BME280;2377;51.734;8.950;2023-06-26T03:15:24;97680.13;;;21.07;68.93
27712;BME280;2377;51.734;8.950;2023-06-26T03:17:51;97678.59;;;21.06;69.12
27712;BME280;2377;51.734;8.950;2023-06-26T03:20:18;97678.38;;;21.02;69.00
27712;BME280;2377;51.734;8.950;2023-06-26T03:22:47;97677.34;;;21.03;69.42
27712;BME280;2377;51.734;8.950;2023-06-26T03:25:14;97688.00;;;21.02;69.46
27712;BME280;2377;51.734;8.950;2023-06-26T03:27:41;97680.97;;;21.02;69.52
27712;BME280;2377;51.734;8.950;2023-06-26T03:30:10;97676.09;;;21.01;69.37
27712;BME280;2377;51.734;8.950;2023-06-26T03:32:37;97676.09;;;21.01;69.33
27712;BME280;2377;51.734;8.950;2023-06-26T03:35:05;97674.53;;;21.00;69.85
27712;BME280;2377;51.734;8.950;2023-06-26T03:37:32;97677.44;;;20.98;69.95
27712;BME280;2377;51.734;8.950;2023-06-26T03:40:01;97679.25;;;20.98;69.76
27712;BME280;2377;51.734;8.950;2023-06-26T03:42:33;97669.91;;;20.97;69.71
27712;BME280;2377;51.734;8.950;2023-06-26T03:45:00;97679.53;;;20.96;70.03
27712;BME280;2377;51.734;8.950;2023-06-26T03:47:27;97677.97;;;20.95;70.38
27712;BME280;2377;51.734;8.950;2023-06-26T03:49:54;97674.91;;;20.93;70.64
27712;BME280;2377;51.734;8.950;2023-06-26T03:52:21;97678.28;;;20.94;70.71
27712;BME280;2377;51.734;8.950;2023-06-26T03:54:50;97672.31;;;20.93;70.75
27712;BME280;2377;51.734;8.950;2023-06-26T03:57:19;97677.22;;;20.95;70.93
27712;BME280;2377;51.734;8.950;2023-06-26T03:59:46;97670.47;;;20.94;71.04
27712;BME280;2377;51.734;8.950;2023-06-26T04:02:13;97672.78;;;20.95;70.83
27712;BME280;2377;51.734;8.950;2023-06-26T04:04:40;97672.00;;;20.95;70.90
27712;BME280;2377;51.734;8.950;2023-06-26T04:07:10;97675.09;;;20.97;71.47
27712;BME280;2377;51.734;8.950;2023-06-26T04:09:37;97672.50;;;20.97;71.44
27712;BME280;2377;51.734;8.950;2023-06-26T04:12:06;97666.81;;;20.95;71.73
27712;BME280;2377;51.734;8.950;2023-06-26T04:14:34;97667.31;;;20.97;72.09
27712;BME280;2377;51.734;8.950;2023-06-26T04:17:02;97666.25;;;20.98;72.03
27712;BME280;2377;51.734;8.950;2023-06-26T04:19:29;97669.81;;;21.02;72.27
27712;BME280;2377;51.734;8.950;2023-06-26T04:21:56;97664.34;;;21.03;72.72
27712;BME280;2377;51.734;8.950;2023-06-26T04:24:24;97664.53;;;21.07;72.70
27712;BME280;2377;51.734;8.950;2023-06-26T04:26:51;97659.56;;;21.10;72.73
27712;BME280;2377;51.734;8.950;2023-06-26T04:29:18;97672.47;;;21.16;72.11
27712;BME280;2377;51.734;8.950;2023-06-26T04:31:46;97665.38;;;21.21;72.09
27712;BME280;2377;51.734;8.950;2023-06-26T04:34:13;97662.69;;;21.26;72.30
27712;BME280;2377;51.734;8.950;2023-06-26T04:36:40;97664.13;;;21.32;72.75
27712;BME280;2377;51.734;8.950;2023-06-26T04:39:12;97659.34;;;21.40;72.37
27712;BME280;2377;51.734;8.950;2023-06-26T04:41:40;97663.59;;;21.49;72.02
27712;BME280;2377;51.734;8.950;2023-06-26T04:44:07;97662.38;;;21.61;72.16
27712;BME280;2377;51.734;8.950;2023-06-26T04:46:34;97668.19;;;21.71;72.30
27712;BME280;2377;51.734;8.950;2023-06-26T04:49:03;97670.91;;;21.80;72.27
27712;BME280;2377;51.734;8.950;2023-06-26T04:51:30;97662.13;;;21.90;72.04
27712;BME280;2377;51.734;8.950;2023-06-26T04:53:57;97665.09;;;21.97;72.19
27712;BME280;2377;51.734;8.950;2023-06-26T04:56:24;97667.03;;;22.05;71.61
27712;BME280;2377;51.734;8.950;2023-06-26T04:58:51;97665.88;;;22.11;71.90
27712;BME280;2377;51.734;8.950;2023-06-26T05:01:18;97666.63;;;22.12;71.62
27712;BME280;2377;51.734;8.950;2023-06-26T05:03:45;97670.00;;;22.12;71.02
27712;BME280;2377;51.734;8.950;2023-06-26T05:06:14;97662.66;;;22.14;71.71
27712;BME280;2377;51.734;8.950;2023-06-26T05:08:41;97665.28;;;22.14;72.22
27712;BME280;2377;51.734;8.950;2023-06-26T05:11:08;97655.34;;;22.16;73.02
27712;BME280;2377;51.734;8.950;2023-06-26T05:13:36;97663.63;;;22.19;72.51
27712;BME280;2377;51.734;8.950;2023-06-26T05:16:05;97662.56;;;22.20;72.79
27712;BME280;2377;51.734;8.950;2023-06-26T05:18:34;97665.13;;;22.25;73.63
27712;BME280;2377;51.734;8.950;2023-06-26T05:21:03;97660.09;;;22.28;73.77
27712;BME280;2377;51.734;8.950;2023-06-26T05:23:33;97654.75;;;22.33;74.16
27712;BME280;2377;51.734;8.950;2023-06-26T05:26:01;97664.63;;;22.36;73.80
27712;BME280;2377;51.734;8.950;2023-06-26T05:28:30;97656.38;;;22.43;73.28
27712;BME280;2377;51.734;8.950;2023-06-26T05:30:58;97664.09;;;22.48;72.72
27712;BME280;2377;51.734;8.950;2023-06-26T05:33:27;97665.03;;;22.52;72.85
27712;BME280;2377;51.734;8.950;2023-06-26T05:35:56;97660.78;;;22.56;72.59
27712;BME280;2377;51.734;8.950;2023-06-26T05:38:25;97664.84;;;22.63;71.38
27712;BME280;2377;51.734;8.950;2023-06-26T05:40:55;97660.28;;;22.68;70.82
27712;BME280;2377;51.734;8.950;2023-06-26T05:43:23;97657.88;;;22.72;70.24
27712;BME280;2377;51.734;8.950;2023-06-26T05:45:50;97658.78;;;22.76;69.61
27712;BME280;2377;51.734;8.950;2023-06-26T05:48:17;97654.06;;;22.78;69.33
27712;BME280;2377;51.734;8.950;2023-06-26T05:50:45;97659.75;;;22.80;68.84
27712;BME280;2377;51.734;8.950;2023-06-26T05:53:13;97657.34;;;22.84;68.60
27712;BME280;2377;51.734;8.950;2023-06-26T05:55:41;97656.44;;;22.88;68.96
27712;BME280;2377;51.734;8.950;2023-06-26T05:58:11;97651.69;;;22.90;68.64
27712;BME280;2377;51.734;8.950;2023-06-26T06:00:39;97656.63;;;22.92;68.39
27712;BME280;2377;51.734;8.950;2023-06-26T06:03:06;97658.34;;;22.96;68.35
27712;BME280;2377;51.734;8.950;2023-06-26T06:05:35;97655.63;;;23.02;68.85
27712;BME280;2377;51.734;8.950;2023-06-26T06:08:03;97660.25;;;23.05;68.16
27712;BME280;2377;51.734;8.950;2023-06-26T06:10:31;97662.09;;;23.04;68.07
27712;BME280;2377;51.734;8.950;2023-06-26T06:12:58;97661.19;;;23.09;68.43
27712;BME280;2377;51.734;8.950;2023-06-26T06:15:26;97667.06;;;23.14;68.78
27712;BME280;2377;51.734;8.950;2023-06-26T06:17:53;97660.19;;;23.18;68.74
27712;BME280;2377;51.734;8.950;2023-06-26T06:20:20;97661.88;;;23.23;68.04
27712;BME280;2377;51.734;8.950;2023-06-26T06:22:48;97659.63;;;23.30;67.66
27712;BME280;2377;51.734;8.950;2023-06-26T06:25:15;97656.78;;;23.40;67.17
27712;BME280;2377;51.734;8.950;2023-06-26T06:27:42;97665.72;;;23.48;63.62
27712;BME280;2377;51.734;8.950;2023-06-26T06:30:11;97670.84;;;23.62;64.31
27712;BME280;2377;51.734;8.950;2023-06-26T06:32:40;97671.84;;;23.75;62.55
27712;BME280;2377;51.734;8.950;2023-06-26T06:35:07;97671.56;;;23.85;62.62
27712;BME280;2377;51.734;8.950;2023-06-26T06:37:36;97675.13;;;23.98;62.62
27712;BME280;2377;51.734;8.950;2023-06-26T06:40:05;97674.56;;;24.10;58.77
27712;BME280;2377;51.734;8.950;2023-06-26T06:42:32;97673.19;;;24.21;59.06
27712;BME280;2377;51.734;8.950;2023-06-26T06:45:00;97680.28;;;24.38;58.43
27712;BME280;2377;51.734;8.950;2023-06-26T06:47:28;97685.72;;;24.50;58.35
27712;BME280;2377;51.734;8.950;2023-06-26T06:49:56;97682.81;;;24.60;56.53
27712;BME280;2377;51.734;8.950;2023-06-26T06:52:24;97693.72;;;24.71;56.83
27712;BME280;2377;51.734;8.950;2023-06-26T06:54:52;97687.88;;;24.83;56.70
27712;BME280;2377;51.734;8.950;2023-06-26T06:57:20;97685.41;;;24.95;55.15
27712;BME280;2377;51.734;8.950;2023-06-26T06:59:47;97687.25;;;25.03;56.25
27712;BME280;2377;51.734;8.950;2023-06-26T07:02:17;97689.84;;;25.21;56.69
27712;BME280;2377;51.734;8.950;2023-06-26T07:04:44;97688.13;;;25.42;56.09
27712;BME280;2377;51.734;8.950;2023-06-26T07:07:21;97698.16;;;25.40;55.31
27712;BME280;2377;51.734;8.950;2023-06-26T07:09:48;97687.78;;;25.52;56.16
27712;BME280;2377;51.734;8.950;2023-06-26T07:12:16;97699.09;;;25.74;54.99
27712;BME280;2377;51.734;8.950;2023-06-26T07:14:43;97697.84;;;25.89;54.95
27712;BME280;2377;51.734;8.950;2023-06-26T07:17:10;97699.19;;;25.95;53.92
27712;BME280;2377;51.734;8.950;2023-06-26T07:19:37;97699.63;;;26.06;53.47
27712;BME280;2377;51.734;8.950;2023-06-26T07:22:04;97706.38;;;26.07;53.45
27712;BME280;2377;51.734;8.950;2023-06-26T07:24:33;97706.22;;;26.03;53.62
27712;BME280;2377;51.734;8.950;2023-06-26T07:27:00;97711.75;;;26.10;53.70
27712;BME280;2377;51.734;8.950;2023-06-26T07:29:27;97723.50;;;26.04;53.83
27712;BME280;2377;51.734;8.950;2023-06-26T07:31:54;97725.22;;;26.00;54.34
27712;BME280;2377;51.734;8.950;2023-06-26T07:34:21;97725.50;;;26.07;53.80
27712;BME280;2377;51.734;8.950;2023-06-26T07:36:48;97718.66;;;26.15;54.39
27712;BME280;2377;51.734;8.950;2023-06-26T07:39:15;97721.44;;;26.19;55.15
27712;BME280;2377;51.734;8.950;2023-06-26T07:41:44;97727.47;;;26.10;55.04
27712;BME280;2377;51.734;8.950;2023-06-26T07:44:11;97726.38;;;26.20;55.30
27712;BME280;2377;51.734;8.950;2023-06-26T07:46:38;97731.31;;;26.43;54.70
27712;BME280;2377;51.734;8.950;2023-06-26T07:49:05;97736.53;;;26.43;54.05
27712;BME280;2377;51.734;8.950;2023-06-26T07:51:33;97734.56;;;26.40;53.80
27712;BME280;2377;51.734;8.950;2023-06-26T07:54:14;97738.25;;;26.39;53.46
27712;BME280;2377;51.734;8.950;2023-06-26T07:57:01;97739.81;;;26.40;53.09
27712;BME280;2377;51.734;8.950;2023-06-26T07:59:30;97738.03;;;26.52;53.88
27712;BME280;2377;51.734;8.950;2023-06-26T08:01:57;97729.44;;;26.43;54.24
27712;BME280;2377;51.734;8.950;2023-06-26T08:04:27;97733.72;;;26.56;53.89
27712;BME280;2377;51.734;8.950;2023-06-26T08:06:58;97727.44;;;26.49;54.06
27712;BME280;2377;51.734;8.950;2023-06-26T08:09:28;97728.47;;;26.56;55.11
27712;BME280;2377;51.734;8.950;2023-06-26T08:11:57;97726.25;;;26.67;53.39
27712;BME280;2377;51.734;8.950;2023-06-26T08:14:25;97735.63;;;26.68;53.34
27712;BME280;2377;51.734;8.950;2023-06-26T08:16:52;97729.44;;;26.73;53.64
27712;BME280;2377;51.734;8.950;2023-06-26T08:19:19;97733.41;;;26.28;53.36
27712;BME280;2377;51.734;8.950;2023-06-26T08:21:47;97733.13;;;26.21;54.25
27712;BME280;2377;51.734;8.950;2023-06-26T08:24:14;97735.78;;;26.12;54.77
27712;BME280;2377;51.734;8.950;2023-06-26T08:26:45;97729.06;;;26.03;55.41
27712;BME280;2377;51.734;8.950;2023-06-26T08:29:14;97743.44;;;25.97;56.09
27712;BME280;2377;51.734;8.950;2023-06-26T08:31:43;97748.50;;;25.93;57.00
27712;BME280;2377;51.734;8.950;2023-06-26T08:34:10;97753.78;;;25.76;56.59
27712;BME280;2377;51.734;8.950;2023-06-26T08:36:38;97756.63;;;25.53;57.11
27712;BME280;2377;51.734;8.950;2023-06-26T08:39:05;97754.63;;;25.33;57.48
27712;BME280;2377;51.734;8.950;2023-06-26T08:41:34;97768.66;;;25.37;58.10
27712;BME280;2377;51.734;8.950;2023-06-26T08:44:02;97751.38;;;25.44;58.62
27712;BME280;2377;51.734;8.950;2023-06-26T08:46:32;97760.56;;;25.68;58.97
27712;BME280;2377;51.734;8.950;2023-06-26T08:49:14;97767.50;;;25.72;59.44
27712;BME280;2377;51.734;8.950;2023-06-26T08:51:47;97776.91;;;25.73;58.66
27712;BME280;2377;51.734;8.950;2023-06-26T08:54:22;97768.94;;;25.61;58.79
27712;BME280;2377;51.734;8.950;2023-06-26T08:56:56;97768.22;;;25.26;60.06
27712;BME280;2377;51.734;8.950;2023-06-26T08:59:24;97766.03;;;25.28;60.13
27712;BME280;2377;51.734;8.950;2023-06-26T09:01:53;97765.28;;;25.36;61.21
27712;BME280;2377;51.734;8.950;2023-06-26T09:04:20;97776.34;;;25.16;61.18
27712;BME280;2377;51.734;8.950;2023-06-26T09:06:48;97771.44;;;25.14;62.03
27712;BME280;2377;51.734;8.950;2023-06-26T09:09:15;97765.25;;;25.01;61.88
27712;BME280;2377;51.734;8.950;2023-06-26T09:11:42;97767.25;;;25.04;62.90
27712;BME280;2377;51.734;8.950;2023-06-26T09:14:09;97757.56;;;25.14;62.64
27712;BME280;2377;51.734;8.950;2023-06-26T09:16:40;97762.78;;;25.40;62.97
27712;BME280;2377;51.734;8.950;2023-06-26T09:19:11;97768.31;;;25.47;62.44
27712;BME280;2377;51.734;8.950;2023-06-26T09:21:39;97767.78;;;25.80;61.82
27712;BME280;2377;51.734;8.950;2023-06-26T09:24:07;97767.34;;;25.86;61.74
27712;BME280;2377;51.734;8.950;2023-06-26T09:26:37;97792.88;;;25.98;59.91
27712;BME280;2377;51.734;8.950;2023-06-26T09:29:05;97794.31;;;25.78;60.83
27712;BME280;2377;51.734;8.950;2023-06-26T09:31:35;97789.88;;;25.61;60.24
27712;BME280;2377;51.734;8.950;2023-06-26T09:34:02;97788.81;;;25.45;61.49
27712;BME280;2377;51.734;8.950;2023-06-26T09:36:32;97791.31;;;25.24;62.49
27712;BME280;2377;51.734;8.950;2023-06-26T09:39:01;97803.59;;;25.15;62.38
27712;BME280;2377;51.734;8.950;2023-06-26T09:41:30;97802.97;;;25.44;62.70
27712;BME280;2377;51.734;8.950;2023-06-26T09:44:02;97815.75;;;25.45;62.14
27712;BME280;2377;51.734;8.950;2023-06-26T09:46:30;97804.81;;;25.17;61.50
27712;BME280;2377;51.734;8.950;2023-06-26T09:49:01;97809.56;;;24.89;62.45
27712;BME280;2377;51.734;8.950;2023-06-26T09:51:31;97806.19;;;24.97;63.34
27712;BME280;2377;51.734;8.950;2023-06-26T09:53:59;97805.13;;;25.16;62.70
27712;BME280;2377;51.734;8.950;2023-06-26T09:56:27;97798.22;;;25.28;62.29
27712;BME280;2377;51.734;8.950;2023-06-26T09:58:56;97807.44;;;25.35;62.41
27712;BME280;2377;51.734;8.950;2023-06-26T10:01:23;97815.13;;;25.57;61.92
27712;BME280;2377;51.734;8.950;2023-06-26T10:03:51;97813.56;;;25.73;61.59
27712;BME280;2377;51.734;8.950;2023-06-26T10:06:24;97807.53;;;25.90;61.21
27712;BME280;2377;51.734;8.950;2023-06-26T10:08:56;97802.69;;;26.10;60.37
27712;BME280;2377;51.734;8.950;2023-06-26T10:11:29;97810.47;;;25.89;60.61
27712;BME280;2377;51.734;8.950;2023-06-26T10:13:59;97808.56;;;26.15;60.50
27712;BME280;2377;51.734;8.950;2023-06-26T10:16:28;97813.72;;;26.24;59.86
27712;BME280;2377;51.734;8.950;2023-06-26T10:19:03;97810.97;;;26.29;58.92
27712;BME280;2377;51.734;8.950;2023-06-26T10:21:34;97811.91;;;26.25;59.22
27712;BME280;2377;51.734;8.950;2023-06-26T10:24:05;97814.69;;;26.20;59.98
27712;BME280;2377;51.734;8.950;2023-06-26T10:26:38;97824.03;;;25.82;60.87
27712;BME280;2377;51.734;8.950;2023-06-26T10:29:06;97823.47;;;25.59;61.12
27712;BME280;2377;51.734;8.950;2023-06-26T10:31:35;97820.97;;;25.63;61.05
27712;BME280;2377;51.734;8.950;2023-06-26T10:34:05;97820.97;;;25.71;61.82
27712;BME280;2377;51.734;8.950;2023-06-26T10:36:35;97822.81;;;25.71;61.18
27712;BME280;2377;51.734;8.950;2023-06-26T10:39:05;97831.09;;;25.82;61.72
27712;BME280;2377;51.734;8.950;2023-06-26T10:41:38;97825.56;;;25.74;61.18
27712;BME280;2377;51.734;8.950;2023-06-26T10:44:10;97812.53;;;25.48;60.62
27712;BME280;2377;51.734;8.950;2023-06-26T10:46:54;97823.00;;;25.57;60.70
27712;BME280;2377;51.734;8.950;2023-06-26T10:49:28;97822.06;;;25.44;60.59
27712;BME280;2377;51.734;8.950;2023-06-26T10:51:55;97821.91;;;25.32;60.89
27712;BME280;2377;51.734;8.950;2023-06-26T10:54:30;97816.22;;;25.47;61.06
27712;BME280;2377;51.734;8.950;2023-06-26T10:56:57;97818.06;;;25.56;60.42
27712;BME280;2377;51.734;8.950;2023-06-26T10:59:26;97827.63;;;25.43;59.26
27712;BME280;2377;51.734;8.950;2023-06-26T11:01:56;97823.78;;;25.40;59.39
27712;BME280;2377;51.734;8.950;2023-06-26T11:04:40;97821.59;;;25.51;58.83
27712;BME280;2377;51.734;8.950;2023-06-26T11:07:19;97830.81;;;25.74;59.08
27712;BME280;2377;51.734;8.950;2023-06-26T11:10:00;97831.88;;;26.00;59.63
27712;BME280;2377;51.734;8.950;2023-06-26T11:12:38;97831.09;;;25.99;58.51
27712;BME280;2377;51.734;8.950;2023-06-26T11:15:08;97836.28;;;26.17;58.19
27712;BME280;2377;51.734;8.950;2023-06-26T11:17:37;97840.59;;;26.12;56.44
27712;BME280;2377;51.734;8.950;2023-06-26T11:20:06;97842.28;;;26.17;56.15
27712;BME280;2377;51.734;8.950;2023-06-26T11:22:36;97843.22;;;26.12;56.09
27712;BME280;2377;51.734;8.950;2023-06-26T11:25:07;97843.28;;;26.04;56.38
27712;BME280;2377;51.734;8.950;2023-06-26T11:27:39;97843.75;;;25.97;55.21
27712;BME280;2377;51.734;8.950;2023-06-26T11:30:08;97838.91;;;26.08;55.39
27712;BME280;2377;51.734;8.950;2023-06-26T11:32:36;97827.63;;;26.25;54.33
27712;BME280;2377;51.734;8.950;2023-06-26T11:35:04;97844.22;;;26.38;54.95
27712;BME280;2377;51.734;8.950;2023-06-26T11:37:32;97841.13;;;26.44;53.74
27712;BME280;2377;51.734;8.950;2023-06-26T11:39:59;97854.91;;;26.62;54.37
27712;BME280;2377;51.734;8.950;2023-06-26T11:42:29;97856.56;;;26.75;54.63
27712;BME280;2377;51.734;8.950;2023-06-26T11:44:56;97858.88;;;26.77;54.59
27712;BME280;2377;51.734;8.950;2023-06-26T11:47:24;97849.41;;;26.85;54.47
27712;BME280;2377;51.734;8.950;2023-06-26T11:49:52;97852.69;;;26.82;54.39
27712;BME280;2377;51.734;8.950;2023-06-26T11:52:19;97854.25;;;26.74;54.52
27712;BME280;2377;51.734;8.950;2023-06-26T11:54:46;97862.84;;;26.45;54.67
27712;BME280;2377;51.734;8.950;2023-06-26T11:57:15;97872.28;;;26.37;53.17
27712;BME280;2377;51.734;8.950;2023-06-26T11:59:49;97863.38;;;26.29;52.32
27712;BME280;2377;51.734;8.950;2023-06-26T12:02:16;97864.28;;;26.33;52.91
27712;BME280;2377;51.734;8.950;2023-06-26T12:04:45;97860.75;;;26.29;51.32
27712;BME280;2377;51.734;8.950;2023-06-26T12:07:13;97872.00;;;26.30;51.42
27712;BME280;2377;51.734;8.950;2023-06-26T12:09:43;97862.25;;;26.39;52.52
27712;BME280;2377;51.734;8.950;2023-06-26T12:12:12;97866.91;;;26.33;52.23
27712;BME280;2377;51.734;8.950;2023-06-26T12:14:40;97885.53;;;26.41;53.36
27712;BME280;2377;51.734;8.950;2023-06-26T12:17:11;97884.28;;;26.55;52.24
27712;BME280;2377;51.734;8.950;2023-06-26T12:19:47;97873.72;;;26.64;53.09
27712;BME280;2377;51.734;8.950;2023-06-26T12:22:16;97879.72;;;26.73;55.26
27712;BME280;2377;51.734;8.950;2023-06-26T12:24:46;97903.44;;;26.86;53.40
27712;BME280;2377;51.734;8.950;2023-06-26T12:27:15;97893.69;;;26.56;52.02
27712;BME280;2377;51.734;8.950;2023-06-26T12:29:49;97898.97;;;26.30;51.22
27712;BME280;2377;51.734;8.950;2023-06-26T12:32:19;97901.03;;;26.07;52.72
27712;BME280;2377;51.734;8.950;2023-06-26T12:34:49;97889.34;;;25.96;52.54
27712;BME280;2377;51.734;8.950;2023-06-26T12:37:17;97883.66;;;25.85;51.69
27712;BME280;2377;51.734;8.950;2023-06-26T12:39:50;97891.38;;;25.90;52.42
27712;BME280;2377;51.734;8.950;2023-06-26T12:42:19;97897.81;;;26.02;51.16
27712;BME280;2377;51.734;8.950;2023-06-26T12:44:47;97890.72;;;26.11;51.02
27712;BME280;2377;51.734;8.950;2023-06-26T12:47:16;97890.31;;;26.39;51.68
27712;BME280;2377;51.734;8.950;2023-06-26T12:49:49;97886.72;;;26.52;49.03
27712;BME280;2377;51.734;8.950;2023-06-26T12:52:17;97887.69;;;26.39;48.01
27712;BME280;2377;51.734;8.950;2023-06-26T12:54:46;97874.75;;;26.33;46.44
27712;BME280;2377;51.734;8.950;2023-06-26T12:57:14;97888.28;;;26.06;47.14
27712;BME280;2377;51.734;8.950;2023-06-26T12:59:41;97888.41;;;26.01;46.65
27712;BME280;2377;51.734;8.950;2023-06-26T13:02:08;97891.03;;;26.01;47.27
27712;BME280;2377;51.734;8.950;2023-06-26T13:04:37;97887.19;;;26.07;48.25
27712;BME280;2377;51.734;8.950;2023-06-26T13:07:07;97883.72;;;26.32;48.00
27712;BME280;2377;51.734;8.950;2023-06-26T13:09:35;97888.78;;;26.38;45.01
27712;BME280;2377;51.734;8.950;2023-06-26T13:12:05;97890.66;;;26.37;44.25
27712;BME280;2377;51.734;8.950;2023-06-26T13:14:32;97889.25;;;26.31;44.53
27712;BME280;2377;51.734;8.950;2023-06-26T13:17:00;97885.59;;;26.23;44.46
27712;BME280;2377;51.734;8.950;2023-06-26T13:19:27;97875.91;;;26.15;43.42